Time;durP1;ratioP1;P1;durP2;ratioP2;P2;SDS_P1;SDS_P2;PMS_P1;PMS_P2;Temp;Humidity;BMP_temperature;BMP_pressure;BME280_temperature;BME280_humidity;BME280_pressure;Samples;Min_cycle;Max_cycle;Signal;HPM_P1;HPM_P2
2023/04/25 00:00:25;;;;;;;0.30;0.30;;;;;;;12.06;81.97;98217.22;4485731;32;35056;-71
2023/04/25 00:02:56;;;;;;;0.75;0.75;;;;;;;12.02;82.08;98208.66;4484202;32;35296;-71
2023/04/25 00:05:25;;;;;;;0.30;0.30;;;;;;;11.87;83.57;98204.78;4485442;32;33660;-71
2023/04/25 00:07:54;;;;;;;0.30;0.30;;;;;;;12.05;82.37;98202.47;4485608;32;34648;-71
2023/04/25 00:10:24;;;;;;;0.30;0.30;;;;;;;11.75;83.28;98195.63;4485651;32;35747;-71
2023/04/25 00:12:52;;;;;;;0.30;0.30;;;;;;;11.95;82.92;98194.13;4471298;32;34458;-71
2023/04/25 00:15:24;;;;;;;0.40;0.40;;;;;;;12.00;82.58;98188.72;4485347;32;34339;-71
2023/04/25 00:17:52;;;;;;;0.40;0.40;;;;;;;11.58;84.22;98188.34;4485278;32;33809;-71
2023/04/25 00:20:21;;;;;;;0.40;0.40;;;;;;;11.86;82.76;98187.44;4485353;32;35888;-71
2023/04/25 00:22:50;;;;;;;0.30;0.30;;;;;;;11.89;83.06;98186.47;4470929;32;33710;-71
2023/04/25 00:25:19;;;;;;;0.30;0.30;;;;;;;12.24;80.83;98185.25;4485200;32;33429;-71
2023/04/25 00:27:47;;;;;;;0.30;0.30;;;;;;;12.18;81.31;98182.88;4485241;31;33831;-71
2023/04/25 00:30:15;;;;;;;0.30;0.30;;;;;;;12.20;80.05;98175.84;4460344;32;35094;-71
2023/04/25 00:32:43;;;;;;;0.30;0.30;;;;;;;11.97;82.20;98173.19;4469282;32;34288;-71
2023/04/25 00:35:11;;;;;;;0.30;0.30;;;;;;;12.00;82.71;98173.06;4469324;32;33674;-71
2023/04/25 00:37:40;;;;;;;0.30;0.30;;;;;;;12.16;82.23;98169.03;4469342;32;33975;-70
2023/04/25 00:40:08;;;;;;;0.30;0.30;;;;;;;12.20;81.22;98170.63;4469028;32;35026;-71
2023/04/25 00:42:37;;;;;;;0.40;0.40;;;;;;;12.32;81.25;98158.88;4469192;32;34616;-71
2023/04/25 00:45:07;;;;;;;1.25;0.75;;;;;;;12.16;81.73;98152.50;4469126;32;33493;-71
2023/04/25 00:47:35;;;;;;;0.30;0.30;;;;;;;11.98;83.77;98154.84;4455353;32;33889;-71
2023/04/25 00:50:04;;;;;;;9.60;1.73;;;;;;;12.27;82.12;98155.59;4469002;32;35029;-71
2023/04/25 00:52:36;;;;;;;0.88;0.88;;;;;;;11.85;83.80;98145.75;4469104;32;34352;-71
2023/04/25 00:55:05;;;;;;;0.60;0.60;;;;;;;11.85;84.24;98149.19;4455138;32;33425;-71
2023/04/25 00:57:33;;;;;;;0.55;0.55;;;;;;;11.64;85.89;98145.56;4455261;32;33906;-71
2023/04/25 01:00:05;;;;;;;1.65;1.48;;;;;;;11.83;84.96;98139.75;4468881;32;35039;-71
2023/04/25 01:02:33;;;;;;;0.57;0.57;;;;;;;11.70;85.34;98144.50;4469038;32;34463;-71
2023/04/25 01:05:03;;;;;;;0.40;0.40;;;;;;;11.66;85.31;98137.72;4455009;32;34141;-71
2023/04/25 01:07:32;;;;;;;0.50;0.50;;;;;;;11.19;87.53;98136.66;4454988;32;33907;-71
2023/04/25 01:10:00;;;;;;;0.30;0.30;;;;;;;11.39;86.34;98133.37;4469094;32;35760;-71
2023/04/25 01:12:28;;;;;;;0.50;0.50;;;;;;;11.45;84.47;98134.91;4468760;32;34641;-71
2023/04/25 01:14:56;;;;;;;0.40;0.40;;;;;;;11.21;85.41;98147.03;4443951;32;33378;-71
2023/04/25 01:17:24;;;;;;;0.40;0.40;;;;;;;11.34;84.39;98134.44;4470981;32;34075;-71
2023/04/25 01:19:53;;;;;;;1.10;0.65;;;;;;;11.31;83.87;98142.34;4456981;32;34587;-71
2023/04/25 01:22:21;;;;;;;0.40;0.40;;;;;;;11.45;81.56;98145.34;4471381;32;35023;-70
2023/04/25 01:24:50;;;;;;;0.55;0.55;;;;;;;11.51;80.59;98133.87;4457228;32;33583;-71
2023/04/25 01:27:20;;;;;;;0.40;0.40;;;;;;;11.26;80.92;98142.53;4471144;32;33766;-71
2023/04/25 01:29:49;;;;;;;0.37;0.37;;;;;;;11.41;79.24;98143.75;4464840;32;36126;-71
2023/04/25 01:32:18;;;;;;;0.30;0.30;;;;;;;11.45;78.70;98134.91;4472294;32;34606;-71
2023/04/25 01:34:46;;;;;;;2.25;1.42;;;;;;;11.62;77.75;98139.56;4486614;32;33671;-71
2023/04/25 01:37:15;;;;;;;0.50;0.50;;;;;;;11.53;77.98;98138.12;4486515;32;34732;-71
2023/04/25 01:39:44;;;;;;;0.30;0.30;;;;;;;11.53;77.02;98138.12;4459622;32;35005;-71
2023/04/25 01:42:13;;;;;;;0.35;0.35;;;;;;;11.41;77.54;98133.31;4472577;32;35242;-71
2023/04/25 01:44:41;;;;;;;1.10;0.82;;;;;;;11.61;77.54;98142.22;4486647;32;33414;-71
2023/04/25 01:47:09;;;;;;;0.40;0.40;;;;;;;11.23;77.77;98132.19;4472502;32;34846;-71
2023/04/25 01:49:37;;;;;;;0.47;0.47;;;;;;;11.35;77.38;98133.53;4472708;32;35776;-71
2023/04/25 01:52:06;;;;;;;0.55;0.55;;;;;;;11.52;76.13;98138.19;4486429;32;34494;-71
2023/04/25 01:54:34;;;;;;;1.35;1.20;;;;;;;11.29;76.62;98133.72;4486415;32;33426;-71
2023/04/25 01:57:03;;;;;;;0.40;0.40;;;;;;;11.53;75.03;98138.12;4486733;32;33902;-71
2023/04/25 01:59:32;;;;;;;0.62;0.62;;;;;;;11.45;75.02;98140.13;4486638;32;35161;-71
2023/04/25 02:02:03;;;;;;;0.50;0.50;;;;;;;11.48;75.00;98155.69;4486682;32;34413;-71
2023/04/25 02:04:32;;;;;;;0.40;0.40;;;;;;;11.50;74.58;98146.03;4472927;32;33356;-70
2023/04/25 02:07:01;;;;;;;0.50;0.50;;;;;;;11.42;74.51;98145.47;4486701;32;34753;-71
2023/04/25 02:09:29;;;;;;;0.60;0.60;;;;;;;11.34;74.86;98143.09;4486565;32;35043;-71
2023/04/25 02:11:58;;;;;;;0.40;0.40;;;;;;;11.41;75.35;98130.72;4486551;32;35151;-71
2023/04/25 02:14:26;;;;;;;0.45;0.45;;;;;;;11.56;74.07;98143.25;4486628;32;33763;-71
2023/04/25 02:16:54;;;;;;;0.85;0.85;;;;;;;11.27;74.24;98154.63;4486603;32;33848;-70
2023/04/25 02:19:23;;;;;;;0.93;0.93;;;;;;;11.46;74.55;98151.44;4486536;32;35133;-70
2023/04/25 02:21:51;;;;;;;0.60;0.60;;;;;;;11.38;75.29;98151.66;4486253;32;35000;-70
2023/04/25 02:24:19;;;;;;;0.37;0.37;;;;;;;11.17;75.21;98148.87;4486257;32;33701;-71
2023/04/25 02:26:49;;;;;;;0.60;0.60;;;;;;;11.20;74.95;98135.72;4485479;32;33943;-70
2023/04/25 02:29:17;;;;;;;0.30;0.30;;;;;;;11.24;74.94;98139.13;4481984;32;34995;-71
2023/04/25 02:31:45;;;;;;;0.82;0.82;;;;;;;11.23;74.72;98132.19;4470462;32;35173;-70
2023/04/25 02:34:13;;;;;;;0.50;0.50;;;;;;;10.91;76.24;98139.28;4470695;32;33429;-70
2023/04/25 02:36:41;;;;;;;0.50;0.50;;;;;;;11.27;74.80;98143.34;4470492;32;34760;-70
2023/04/25 02:39:10;;;;;;;0.40;0.40;;;;;;;11.19;74.91;98136.66;4470415;32;34958;-70
2023/04/25 02:41:38;;;;;;;0.40;0.40;;;;;;;11.47;73.93;98146.16;4470370;32;34296;-70
2023/04/25 02:44:06;;;;;;;0.95;0.95;;;;;;;11.49;73.81;98136.53;4470369;32;33811;-70
2023/04/25 02:46:34;;;;;;;0.35;0.35;;;;;;;11.32;74.19;98141.47;4456777;32;34714;-70
2023/04/25 02:49:06;;;;;;;0.70;0.70;;;;;;;11.32;74.09;98133.63;4470435;32;35995;-69
2023/04/25 02:51:35;;;;;;;0.68;0.68;;;;;;;11.20;74.44;98137.50;4470416;32;34440;-70
2023/04/25 02:54:03;;;;;;;0.93;0.93;;;;;;;11.22;73.61;98140.06;4470350;32;33464;-71
2023/04/25 02:56:32;;;;;;;0.62;0.62;;;;;;;11.14;74.47;98135.09;4470504;32;34844;-70
2023/04/25 02:59:00;;;;;;;0.43;0.43;;;;;;;10.98;74.57;98140.78;4470306;32;35860;-70
2023/04/25 03:01:29;;;;;;;0.40;0.40;;;;;;;11.13;73.79;98141.19;4470566;32;35083;-70
2023/04/25 03:03:57;;;;;;;0.68;0.68;;;;;;;10.90;75.15;98127.16;4470465;32;33722;-71
2023/04/25 03:06:25;;;;;;;0.40;0.40;;;;;;;11.11;74.45;98136.03;4456497;32;34046;-70
2023/04/25 03:08:53;;;;;;;0.50;0.50;;;;;;;10.77;75.46;98131.06;4456166;32;33606;-69
2023/04/25 03:11:22;;;;;;;0.55;0.52;;;;;;;11.03;74.84;98132.84;4470587;32;35051;-70
2023/04/25 03:13:50;;;;;;;0.40;0.40;;;;;;;11.15;73.80;98129.84;4470526;32;34234;-70
2023/04/25 03:16:19;;;;;;;0.50;0.50;;;;;;;10.78;75.59;98128.41;4470216;32;34641;-70
2023/04/25 03:18:50;;;;;;;2.50;0.70;;;;;;;10.67;76.00;98122.66;4470447;32;36060;-70
2023/04/25 03:21:18;;;;;;;0.52;0.52;;;;;;;10.42;77.28;98130.38;4470526;32;35348;-69
2023/04/25 03:23:47;;;;;;;0.55;0.55;;;;;;;10.66;76.73;98123.56;4470361;32;33435;-70
2023/04/25 03:26:15;;;;;;;0.62;0.62;;;;;;;10.81;76.13;98138.72;4470353;32;34773;-70
2023/04/25 03:28:44;;;;;;;0.40;0.40;;;;;;;10.32;78.25;98139.34;4470830;32;35028;-70
2023/04/25 03:31:12;;;;;;;0.50;0.50;;;;;;;10.75;76.92;98133.69;4486060;32;34414;-70
2023/04/25 03:33:41;;;;;;;0.90;0.82;;;;;;;10.60;77.48;98141.97;4486077;32;33445;-70
2023/04/25 03:36:09;;;;;;;0.40;0.40;;;;;;;10.56;77.81;98148.19;4485609;32;33793;-70
2023/04/25 03:38:37;;;;;;;0.40;0.40;;;;;;;10.59;77.08;98145.50;4485988;32;34920;-69
2023/04/25 03:41:06;;;;;;;0.77;0.75;;;;;;;10.92;76.04;98137.53;4485728;32;34459;-69
2023/04/25 03:43:34;;;;;;;0.65;0.65;;;;;;;10.77;76.80;98144.91;4486062;32;34269;-70
2023/04/25 03:46:03;;;;;;;0.50;0.50;;;;;;;10.47;78.09;98138.06;4485844;32;34114;-70
2023/04/25 03:48:31;;;;;;;0.55;0.55;;;;;;;10.74;76.93;98147.59;4485639;32;34579;-69
2023/04/25 03:51:00;;;;;;;0.70;0.70;;;;;;;10.49;77.44;98149.25;4485881;32;34431;-70
2023/04/25 03:53:29;;;;;;;0.40;0.40;;;;;;;10.83;76.59;98151.69;4485841;32;34369;-70
2023/04/25 03:55:59;;;;;;;0.40;0.40;;;;;;;10.71;77.48;98155.53;4485564;32;34766;-70
2023/04/25 03:58:27;;;;;;;0.50;0.50;;;;;;;10.64;77.62;98151.38;4485362;32;35740;-70
2023/04/25 04:00:55;;;;;;;0.45;0.45;;;;;;;10.67;77.74;98153.91;4485837;32;35210;-70
2023/04/25 04:03:23;;;;;;;0.40;0.40;;;;;;;10.67;78.23;98159.09;4485496;32;33449;-70
2023/04/25 04:05:52;;;;;;;0.50;0.50;;;;;;;10.48;79.63;98165.75;4485529;32;33923;-70
2023/04/25 04:08:20;;;;;;;0.60;0.60;;;;;;;10.42;80.28;98162.44;4485666;32;34697;-69
2023/04/25 04:10:48;;;;;;;1.02;0.90;;;;;;;10.64;79.69;98161.78;4485489;32;34448;-70
2023/04/25 04:13:17;;;;;;;0.40;0.40;;;;;;;10.57;79.68;98170.69;4485483;32;33462;-70
2023/04/25 04:15:45;;;;;;;0.47;0.47;;;;;;;11.00;78.02;98154.63;4485545;32;33879;-69
2023/04/25 04:18:14;;;;;;;0.50;0.50;;;;;;;10.62;79.20;98171.41;4485110;32;35788;-71
2023/04/25 04:20:42;;;;;;;0.65;0.65;;;;;;;10.59;80.49;98163.72;4485484;32;34386;-70
2023/04/25 04:23:11;;;;;;;0.50;0.50;;;;;;;10.47;80.77;98174.50;4485541;32;33497;-70
2023/04/25 04:25:40;;;;;;;0.50;0.50;;;;;;;10.22;83.14;98163.00;4471461;32;33812;-70
2023/04/25 04:28:08;;;;;;;0.60;0.60;;;;;;;10.49;82.49;98167.47;4485262;32;35084;-70
2023/04/25 04:30:37;;;;;;;0.50;0.50;;;;;;;10.76;82.33;98169.25;4472314;32;35270;-70
2023/04/25 04:33:05;;;;;;;3.05;0.88;;;;;;;10.48;83.44;98177.00;4469606;32;34344;-70
2023/04/25 04:35:34;;;;;;;0.60;0.60;;;;;;;10.63;83.24;98168.75;4469745;32;33887;-70
2023/04/25 04:38:02;;;;;;;0.60;0.60;;;;;;;10.26;85.59;98171.56;4469325;32;35079;-70
2023/04/25 04:40:32;;;;;;;0.50;0.50;;;;;;;10.05;87.60;98179.06;4455466;32;34600;-70
2023/04/25 04:43:00;;;;;;;0.40;0.40;;;;;;;10.19;86.95;98175.22;4455705;32;34380;-70
2023/04/25 04:45:31;;;;;;;0.40;0.40;;;;;;;9.97;88.92;98180.16;4469288;32;34795;-70
2023/04/25 04:47:59;;;;;;;0.47;0.47;;;;;;;9.89;88.27;98185.56;4469108;32;35836;-70
2023/04/25 04:50:28;;;;;;;0.60;0.60;;;;;;;10.12;87.79;98178.91;4471225;32;34531;-69
2023/04/25 04:52:57;;;;;;;0.40;0.40;;;;;;;9.74;90.25;98179.03;4471408;32;34420;-70
2023/04/25 04:55:25;;;;;;;0.50;0.50;;;;;;;9.65;91.89;98174.94;4471432;32;34312;-70
2023/04/25 04:57:55;;;;;;;0.40;0.40;;;;;;;9.49;93.58;98181.38;4471096;32;35146;-70
2023/04/25 05:00:23;;;;;;;0.60;0.60;;;;;;;9.72;91.80;98179.97;4471314;32;34332;-69
2023/04/25 05:02:55;;;;;;;0.40;0.40;;;;;;;9.70;92.08;98189.53;4471478;32;33437;-69
2023/04/25 05:05:24;;;;;;;0.68;0.68;;;;;;;9.67;92.39;98188.75;4471334;32;34826;-70
2023/04/25 05:07:53;;;;;;;0.50;0.50;;;;;;;9.65;92.89;98185.31;4471383;32;35788;-70
2023/04/25 05:10:22;;;;;;;0.60;0.60;;;;;;;9.30;95.31;98186.22;4471268;32;34677;-70
2023/04/25 05:12:53;;;;;;;0.73;0.73;;;;;;;9.58;94.76;98183.78;4471415;32;33580;-69
2023/04/25 05:15:22;;;;;;;0.50;0.50;;;;;;;9.53;95.08;98182.16;4471366;32;33865;-70
2023/04/25 05:17:50;;;;;;;1.15;1.05;;;;;;;9.55;95.76;98182.97;4471298;32;35056;-69
2023/04/25 05:20:19;;;;;;;0.47;0.47;;;;;;;9.46;96.13;98182.34;4457405;32;34371;-70
2023/04/25 05:22:49;;;;;;;0.82;0.82;;;;;;;9.28;98.38;98183.66;4470989;32;34260;-69
2023/04/25 05:25:17;;;;;;;0.85;0.82;;;;;;;9.49;97.82;98184.00;4471271;32;33877;-70
2023/04/25 05:27:47;;;;;;;0.62;0.62;;;;;;;9.44;97.09;98185.84;4456216;32;34860;-69
2023/04/25 05:30:15;;;;;;;0.62;0.62;;;;;;;9.52;97.13;98188.28;4481618;32;34440;-69
2023/04/25 05:32:45;;;;;;;2.83;2.30;;;;;;;9.64;97.22;98194.00;4486973;32;33668;-70
2023/04/25 05:35:13;;;;;;;0.40;0.40;;;;;;;9.56;97.62;98192.50;4486653;32;34979;-70
2023/04/25 05:37:42;;;;;;;3.40;1.60;;;;;;;9.79;97.17;98184.94;4486821;32;35802;-71
2023/04/25 05:40:10;;;;;;;0.50;0.50;;;;;;;9.93;96.14;98189.78;4486651;32;34155;-70
2023/04/25 05:42:39;;;;;;;0.50;0.50;;;;;;;9.89;96.80;98184.72;4486699;32;33530;-71
2023/04/25 05:45:08;;;;;;;1.27;0.85;;;;;;;10.15;95.56;98184.03;4486848;32;33635;-70
2023/04/25 05:47:36;;;;;;;0.82;0.82;;;;;;;9.93;96.57;98189.78;4486768;32;34926;-70
2023/04/25 05:50:05;;;;;;;0.57;0.57;;;;;;;9.94;97.27;98191.50;4472231;32;32974;-69
2023/04/25 05:52:33;;;;;;;0.50;0.50;;;;;;;10.17;95.67;98180.47;4472527;32;34766;-70
2023/04/25 05:55:01;;;;;;;3.50;1.10;;;;;;;10.23;95.01;98187.25;4484060;31;34070;-70
2023/04/25 05:57:31;;;;;;;2.37;1.92;;;;;;;10.22;96.10;98186.41;4482968;31;34997;-70
2023/04/25 06:00:00;;;;;;;0.40;0.40;;;;;;;10.43;93.95;98195.37;4458371;32;35092;-70
2023/04/25 06:02:30;;;;;;;0.70;0.70;;;;;;;10.63;93.23;98191.34;4473880;32;33549;-70
2023/04/25 06:04:59;;;;;;;0.80;0.80;;;;;;;10.49;93.63;98185.69;4470743;32;35279;-70
2023/04/25 06:07:28;;;;;;;1.12;1.08;;;;;;;10.47;93.98;98187.50;4470197;32;35752;-71
2023/04/25 06:09:56;;;;;;;0.40;0.40;;;;;;;10.39;92.97;98182.50;4456430;32;34084;-69
2023/04/25 06:12:25;;;;;;;0.60;0.60;;;;;;;10.23;93.99;98182.88;4470611;32;34402;-71
2023/04/25 06:14:54;;;;;;;0.60;0.60;;;;;;;10.35;92.01;98189.53;4470778;32;34113;-71
2023/04/25 06:17:22;;;;;;;0.77;0.77;;;;;;;10.25;92.05;98188.06;4470700;32;36010;-73
2023/04/25 06:19:51;;;;;;;0.55;0.55;;;;;;;10.41;93.39;98188.50;4470358;32;35079;-72
2023/04/25 06:22:19;;;;;;;0.40;0.40;;;;;;;10.97;88.42;98190.31;4470416;32;33578;-72
2023/04/25 06:24:47;;;;;;;0.70;0.70;;;;;;;10.61;90.89;98188.78;4470715;32;33966;-72
2023/04/25 06:27:15;;;;;;;0.43;0.43;;;;;;;10.77;90.41;98188.34;4456904;32;35963;-72
2023/04/25 06:29:43;;;;;;;0.47;0.47;;;;;;;10.82;90.56;98189.06;4456167;32;34553;-71
2023/04/25 06:32:11;;;;;;;0.62;0.62;;;;;;;10.77;90.77;98193.53;4456208;32;34272;-71
2023/04/25 06:34:40;;;;;;;1.45;1.35;;;;;;;11.35;87.62;98191.72;4470237;32;33880;-73
2023/04/25 06:37:08;;;;;;;0.43;0.43;;;;;;;11.12;89.01;98189.00;4456540;32;35115;-74
2023/04/25 06:39:36;;;;;;;0.50;0.50;;;;;;;11.28;87.41;98181.56;4469923;32;34237;-72
2023/04/25 06:42:08;;;;;;;0.60;0.60;;;;;;;11.34;85.88;98189.16;4456620;32;33345;-70
2023/04/25 06:44:37;;;;;;;0.50;0.50;;;;;;;11.44;84.41;98185.38;4470521;32;33900;-71
2023/04/25 06:47:20;;;;;;;0.88;0.88;;;;;;;11.53;84.69;98179.84;4470473;32;35808;-71
2023/04/25 06:49:50;;;;;;;1.30;1.20;;;;;;;11.79;83.60;98188.56;4470466;32;35083;-71
2023/04/25 06:52:21;;;;;;;0.47;0.47;;;;;;;11.64;83.91;98181.25;4470278;32;33116;-71
2023/04/25 06:54:50;;;;;;;0.40;0.40;;;;;;;11.66;82.10;98179.44;4456503;32;33875;-72
2023/04/25 06:57:24;;;;;;;0.52;0.52;;;;;;;11.88;81.33;98179.56;4456782;32;34913;-71
2023/04/25 06:59:54;;;;;;;0.75;0.75;;;;;;;11.91;81.03;98180.34;4469148;32;35309;-72
2023/04/25 07:02:22;;;;;;;0.68;0.68;;;;;;;12.40;79.91;98189.91;4470348;32;33465;-72
2023/04/25 07:04:51;;;;;;;0.80;0.80;;;;;;;12.26;80.41;98193.88;4470563;32;33857;-71
2023/04/25 07:07:19;;;;;;;0.40;0.40;;;;;;;12.86;77.66;98196.88;4470473;32;35895;-71
2023/04/25 07:09:48;;;;;;;0.45;0.45;;;;;;;12.71;77.06;98187.87;4470031;32;34392;-72
2023/04/25 07:12:16;;;;;;;0.57;0.57;;;;;;;13.10;76.28;98189.00;4478556;32;34649;-73
2023/04/25 07:14:44;;;;;;;0.50;0.50;;;;;;;13.11;77.25;98192.44;4471403;32;34020;-71
2023/04/25 07:17:12;;;;;;;0.88;0.73;;;;;;;13.27;76.06;98196.16;4469913;32;35938;-73
2023/04/25 07:19:41;;;;;;;0.45;0.45;;;;;;;13.94;73.33;98200.41;4455040;32;35222;-72
2023/04/25 07:22:09;;;;;;;0.98;0.57;;;;;;;13.97;72.78;98202.87;4469247;32;34052;-71
2023/04/25 07:24:39;;;;;;;0.70;0.70;;;;;;;13.49;72.94;98200.56;4469471;32;34627;-72
2023/04/25 07:27:07;;;;;;;0.47;0.47;;;;;;;14.09;72.78;98206.75;4455552;32;34914;-71
2023/04/25 07:29:37;;;;;;;1.15;1.15;;;;;;;13.93;71.28;98205.72;4469301;32;34460;-73
2023/04/25 07:32:07;;;;;;;0.65;0.65;;;;;;;14.14;69.80;98196.91;4455821;32;33075;-78
2023/04/25 07:34:38;;;;;;;1.08;1.08;;;;;;;14.56;69.62;98201.19;4469118;32;34698;-76
2023/04/25 07:37:06;;;;;;;0.40;0.40;;;;;;;14.95;67.11;98202.91;4455536;32;35308;-74
2023/04/25 07:39:35;;;;;;;0.47;0.47;;;;;;;14.56;68.60;98195.94;4468923;32;35076;-72
2023/04/25 07:42:03;;;;;;;1.17;1.08;;;;;;;14.57;67.69;98204.63;4469070;32;34371;-73
2023/04/25 07:44:38;;;;;;;0.60;0.60;;;;;;;14.74;67.03;98209.16;4469086;32;34826;-72
2023/04/25 07:47:07;;;;;;;0.52;0.52;;;;;;;14.02;69.75;98205.31;4469139;32;34737;-73
2023/04/25 07:49:37;;;;;;;0.65;0.65;;;;;;;14.46;67.96;98210.34;4455429;32;34537;-73
2023/04/25 07:52:08;;;;;;;0.45;0.45;;;;;;;14.41;67.40;98207.09;4464756;32;33399;-73
2023/04/25 07:54:37;;;;;;;0.40;0.40;;;;;;;13.51;71.57;98210.03;4481452;32;34796;-71
2023/04/25 07:57:06;;;;;;;0.40;0.40;;;;;;;13.56;70.22;98213.31;4470840;32;35885;-76
2023/04/25 07:59:34;;;;;;;0.82;0.82;;;;;;;13.52;72.07;98205.66;4457796;32;34499;-74
2023/04/25 08:02:03;;;;;;;0.40;0.40;;;;;;;13.37;71.25;98207.12;4484783;32;33787;-74
2023/04/25 08:04:32;;;;;;;0.40;0.40;;;;;;;13.79;70.15;98198.44;4484496;32;33863;-74
2023/04/25 08:07:00;;;;;;;1.00;1.00;;;;;;;13.68;68.69;98211.09;4470104;32;34730;-76
2023/04/25 08:09:33;;;;;;;2.60;1.95;;;;;;;13.20;72.29;98210.37;4468878;32;34486;-75
2023/04/25 08:12:04;;;;;;;0.93;0.93;;;;;;;13.26;71.24;98207.53;4472444;32;33485;-73
2023/04/25 08:14:35;;;;;;;0.45;0.45;;;;;;;13.78;69.44;98213.28;4466182;32;33807;-75
2023/04/25 08:17:05;;;;;;;0.30;0.30;;;;;;;13.78;70.98;98208.06;4461332;32;35144;-70
2023/04/25 08:19:33;;;;;;;1.02;1.02;;;;;;;13.61;71.50;98213.12;4471871;32;35307;-73
2023/04/25 08:22:01;;;;;;;0.30;0.30;;;;;;;13.76;70.48;98215.09;4470931;32;33502;-75
2023/04/25 08:24:31;;;;;;;0.60;0.60;;;;;;;13.68;69.96;98211.97;4458109;32;33947;-74
2023/04/25 08:27:00;;;;;;;1.23;0.73;;;;;;;13.80;69.60;98221.94;4456492;32;35691;-78
2023/04/25 08:29:28;;;;;;;0.75;0.75;;;;;;;13.62;69.59;98233.13;4460511;32;34058;-74
2023/04/25 08:31:57;;;;;;;0.57;0.57;;;;;;;13.86;68.64;98222.59;4468900;32;33449;-73
2023/04/25 08:34:25;;;;;;;0.40;0.40;;;;;;;13.79;69.25;98220.22;4470596;32;32690;-77
2023/04/25 08:36:53;;;;;;;0.90;0.90;;;;;;;13.80;71.02;98221.06;4475331;32;34792;-77
2023/04/25 08:39:22;;;;;;;0.68;0.68;;;;;;;13.80;69.23;98237.62;4462422;32;34493;-77
2023/04/25 08:41:56;;;;;;;0.90;0.40;;;;;;;13.41;69.91;98235.72;4459791;32;33466;-77
2023/04/25 08:44:24;;;;;;;0.30;0.30;;;;;;;13.39;70.16;98237.53;4445198;32;33547;-78
2023/04/25 08:46:53;;;;;;;0.55;0.55;;;;;;;13.61;69.95;98241.91;4472533;32;35050;-75
2023/04/25 08:49:22;;;;;;;0.82;0.80;;;;;;;14.10;68.50;98239.87;4457991;32;34163;-73
2023/04/25 08:51:52;;;;;;;0.82;0.82;;;;;;;13.61;68.13;98247.16;4450307;32;33761;-72
2023/04/25 08:54:23;;;;;;;0.40;0.40;;;;;;;13.15;70.91;98248.94;4459787;32;33814;-71
2023/04/25 08:57:03;;;;;;;0.75;0.75;;;;;;;12.93;72.59;98254.97;4460944;32;35190;-73
2023/04/25 08:59:32;;;;;;;1.40;0.82;;;;;;;12.81;71.60;98251.06;4474911;32;34561;-74
2023/04/25 09:02:06;;;;;;;0.55;0.55;;;;;;;13.15;71.40;98254.16;4472838;32;33544;-72
2023/04/25 09:04:34;;;;;;;0.60;0.60;;;;;;;12.82;72.40;98252.75;4472479;32;33689;-74
2023/04/25 09:07:03;;;;;;;0.88;0.88;;;;;;;12.95;73.34;98245.31;4458787;32;34899;-74
2023/04/25 09:09:31;;;;;;;0.40;0.40;;;;;;;13.25;70.88;98255.50;4472937;32;34499;-73
2023/04/25 09:12:01;;;;;;;0.62;0.62;;;;;;;13.64;72.22;98257.47;4459335;32;33447;-73
2023/04/25 09:14:30;;;;;;;0.40;0.40;;;;;;;13.39;71.33;98255.81;4472991;32;33199;-74
2023/04/25 09:17:01;;;;;;;1.65;1.20;;;;;;;13.51;69.40;98254.50;4472820;32;34999;-77
2023/04/25 09:19:35;;;;;;;0.52;0.47;;;;;;;13.64;69.00;98240.03;4458655;32;35337;-75
2023/04/25 09:22:10;;;;;;;1.20;0.98;;;;;;;13.79;70.61;98250.75;4459468;32;33516;-75
2023/04/25 09:24:50;;;;;;;0.90;0.90;;;;;;;14.00;67.57;98238.56;4473752;32;33941;-75
2023/04/25 09:27:26;;;;;;;6.62;1.52;;;;;;;13.86;68.04;98246.13;4474431;32;35035;-74
2023/04/25 09:30:00;;;;;;;0.60;0.60;;;;;;;14.52;66.65;98238.03;4473814;32;34270;-74
2023/04/25 09:32:30;;;;;;;0.50;0.50;;;;;;;14.40;65.90;98252.56;4468878;32;31253;-74
2023/04/25 09:34:58;;;;;;;0.30;0.30;;;;;;;14.33;66.50;98243.22;4456610;32;34019;-74
2023/04/25 09:37:28;;;;;;;0.70;0.70;;;;;;;14.46;63.69;98247.03;4456947;32;34283;-72
2023/04/25 09:40:06;;;;;;;0.70;0.70;;;;;;;14.31;66.21;98243.31;4457606;32;34903;-81
2023/04/25 09:42:35;;;;;;;0.90;0.88;;;;;;;14.38;66.89;98228.16;4471314;32;33646;-76
2023/04/25 09:45:04;;;;;;;0.57;0.57;;;;;;;14.49;66.08;98239.03;4471080;32;33886;-75
2023/04/25 09:47:37;;;;;;;0.45;0.45;;;;;;;14.89;64.91;98245.12;4471291;32;35984;-80
2023/04/25 09:50:15;;;;;;;0.62;0.62;;;;;;;14.74;65.56;98246.69;4471075;32;34434;-74
2023/04/25 09:52:44;;;;;;;0.82;0.70;;;;;;;14.59;62.87;98248.22;4457392;32;33497;-75
2023/04/25 09:55:13;;;;;;;0.40;0.40;;;;;;;14.41;64.47;98247.22;4470745;32;34615;-73
2023/04/25 09:57:41;;;;;;;0.75;0.75;;;;;;;14.58;63.45;98251.75;4470982;32;35735;-72
2023/04/25 10:00:12;;;;;;;0.52;0.52;;;;;;;14.59;64.44;98248.22;4456726;32;34441;-75
2023/04/25 10:02:42;;;;;;;0.85;0.85;;;;;;;14.41;65.05;98251.62;4473349;32;34201;-74
2023/04/25 10:05:12;;;;;;;0.30;0.30;;;;;;;14.01;66.10;98250.69;4467998;32;33969;-74
2023/04/25 10:07:40;;;;;;;0.30;0.30;;;;;;;14.12;64.97;98247.66;4475463;32;34944;-71
2023/04/25 10:10:12;;;;;;;0.28;0.28;;;;;;;14.37;64.85;98240.44;4475197;32;35212;-77
2023/04/25 10:12:43;;;;;;;1.17;1.02;;;;;;;14.56;63.05;98243.09;4459173;32;34196;-70
2023/04/25 10:15:11;;;;;;;1.08;1.02;;;;;;;14.81;64.63;98252.50;4474622;32;34627;-70
2023/04/25 10:17:40;;;;;;;0.40;0.40;;;;;;;14.85;63.38;98254.06;4461671;32;34871;-73
2023/04/25 10:20:11;;;;;;;0.52;0.52;;;;;;;15.23;60.32;98248.81;4470279;32;34090;-73
2023/04/25 10:22:44;;;;;;;0.30;0.30;;;;;;;15.47;58.95;98227.56;4457077;32;33294;-74
2023/04/25 10:25:13;;;;;;;0.25;0.25;;;;;;;15.16;60.45;98247.41;4485132;32;34664;-75
2023/04/25 10:27:42;;;;;;;0.30;0.30;;;;;;;15.40;60.39;98244.53;4472154;32;35232;-69
2023/04/25 10:30:14;;;;;;;0.30;0.30;;;;;;;15.57;59.23;98241.94;4472152;32;33933;-73
2023/04/25 10:32:45;;;;;;;0.47;0.47;;;;;;;15.78;58.46;98244.47;4472490;32;33705;-73
2023/04/25 10:35:15;;;;;;;0.20;0.20;;;;;;;15.98;58.14;98241.69;4485421;32;34097;-73
2023/04/25 10:38:04;;;;;;;0.98;0.77;;;;;;;15.85;58.90;98245.88;4470324;32;34308;-75
2023/04/25 10:40:33;;;;;;;0.40;0.40;;;;;;;16.13;58.82;98240.06;4470223;32;35179;-75
2023/04/25 10:43:50;;;;;;;0.73;0.73;;;;;;;16.35;60.06;98241.59;4470370;32;33449;-74
2023/04/25 10:46:22;;;;;;;0.40;0.40;;;;;;;16.41;57.39;98255.25;4461068;32;33981;-75
2023/04/25 10:48:55;;;;;;;0.28;0.28;;;;;;;17.88;58.04;98249.94;4455463;32;35264;-72
2023/04/25 10:51:28;;;;;;;0.55;0.30;;;;;;;18.84;50.21;98240.66;4477577;32;34528;-75
2023/04/25 10:54:11;;;;;;;0.28;0.28;;;;;;;17.81;53.65;98255.53;4463157;32;34383;-70
2023/04/25 10:56:41;;;;;;;0.30;0.30;;;;;;;17.97;52.82;98255.50;4460535;32;33936;-73
2023/04/25 10:59:10;;;;;;;0.50;0.50;;;;;;;17.66;51.14;98255.56;4466099;32;34182;-76
2023/04/25 11:01:51;;;;;;;0.20;0.20;;;;;;;17.55;51.63;98262.28;4475174;32;34528;-79
2023/04/25 14:20:29;;;;;;;0.30;0.30;;;;;;;15.89;47.79;98242.16;4167204;34;32855;-76
2023/04/25 14:22:58;;;;;;;0.30;0.30;;;;;;;16.28;45.48;98248.94;4167680;34;33870;-80
2023/04/25 14:25:27;;;;;;;0.20;0.20;;;;;;;15.85;46.32;98251.97;4168001;34;35107;-74
2023/04/25 14:27:55;;;;;;;0.20;0.20;;;;;;;15.75;46.97;98255.13;4168925;34;35311;-89
2023/04/25 14:30:24;;;;;;;0.25;0.25;;;;;;;15.33;49.25;98247.44;4169537;34;34463;-76
2023/04/25 14:32:52;;;;;;;0.50;0.50;;;;;;;15.12;49.32;98253.69;4169074;34;31874;-77
2023/04/25 14:35:21;;;;;;;0.40;0.40;;;;;;;15.86;47.66;98250.19;4164982;34;35136;-84
2023/04/25 14:37:51;;;;;;;0.30;0.30;;;;;;;16.17;46.21;98240.78;4166040;34;34482;-77
2023/04/25 14:40:29;;;;;;;0.28;0.28;;;;;;;16.05;48.02;98247.47;4165590;34;32985;-73
2023/04/25 14:42:57;;;;;;;0.30;0.30;;;;;;;16.45;46.61;98245.44;4164449;34;34759;-75
2023/04/25 14:45:26;;;;;;;0.20;0.20;;;;;;;16.25;46.57;98243.84;4163054;34;34973;-75
2023/04/25 14:47:54;;;;;;;0.65;0.65;;;;;;;16.02;48.14;98248.47;4163178;34;34029;-77
2023/04/25 14:50:22;;;;;;;0.68;0.68;;;;;;;16.33;46.50;98251.34;4164074;34;33345;-76
2023/04/25 14:52:52;;;;;;;0.95;0.85;;;;;;;16.56;44.81;98252.75;4167071;34;33945;-75
2023/04/25 14:55:20;;;;;;;1.12;0.70;;;;;;;16.53;46.19;98240.63;4169804;34;35187;-71
2023/04/25 14:57:48;;;;;;;0.47;0.35;;;;;;;16.67;44.22;98243.34;4167734;34;35228;-77
2023/04/25 15:00:18;;;;;;;0.30;0.30;;;;;;;16.34;45.84;98246.00;4171060;34;33074;-72